Time;durP1;ratioP1;P1;durP2;ratioP2;P2;SDS_P1;SDS_P2;PMS_P1;PMS_P2;Temp;Humidity;BMP_temperature;BMP_pressure;BME280_temperature;BME280_humidity;BME280_pressure;Samples;Min_cycle;Max_cycle;Signal;HPM_P1;HPM_P2
2022/10/20 00:01:53;;;;;;;21.48;10.82;;;;;;;9.43;92.01;101647.84;5061826;28;20054;-69
2022/10/20 00:04:19;;;;;;;18.95;11.30;;;;;;;9.39;92.36;101646.84;5062587;28;20048;-69
2022/10/20 00:06:44;;;;;;;22.23;10.73;;;;;;;9.38;92.49;101645.06;5061438;28;20107;-77
2022/10/20 00:09:09;;;;;;;21.77;10.45;;;;;;;9.34;92.97;101635.34;5060927;28;21617;-76
2022/10/20 00:11:35;;;;;;;20.65;11.18;;;;;;;9.35;93.04;101630.19;5061141;28;20175;-76
2022/10/20 00:14:02;;;;;;;18.00;10.45;;;;;;;9.34;93.12;101633.66;5060628;28;20025;-76
2022/10/20 00:16:29;;;;;;;22.15;12.90;;;;;;;9.36;93.24;101625.91;5061354;28;20024;-76
2022/10/20 00:18:56;;;;;;;20.38;11.52;;;;;;;9.34;93.44;101623.25;5062092;28;20119;-76
2022/10/20 00:21:24;;;;;;;23.27;11.48;;;;;;;9.36;93.47;101631.09;5061398;28;20064;-77
2022/10/20 00:23:50;;;;;;;21.80;11.30;;;;;;;9.37;93.25;101627.66;5061143;28;20021;-76
2022/10/20 00:26:23;;;;;;;25.13;11.27;;;;;;;9.37;93.61;101632.84;5059363;28;20030;-76
2022/10/20 00:28:50;;;;;;;19.80;10.88;;;;;;;9.38;93.52;101626.84;5078894;28;20044;-77
2022/10/20 00:31:17;;;;;;;21.35;11.10;;;;;;;9.37;94.01;101625.97;5059897;28;20439;-77
2022/10/20 00:33:42;;;;;;;24.50;11.40;;;;;;;9.37;94.12;101625.06;5057882;28;20029;-77
2022/10/20 00:36:11;;;;;;;23.75;11.45;;;;;;;9.36;93.56;101625.91;5061053;28;20035;-69
2022/10/20 00:38:36;;;;;;;22.52;10.90;;;;;;;9.37;93.18;101609.44;5059554;28;20083;-68
2022/10/20 00:41:02;;;;;;;21.88;11.23;;;;;;;9.36;93.12;101607.69;5060568;28;20040;-68
2022/10/20 00:43:56;;;;;;;24.23;11.65;;;;;;;9.35;94.46;101611.13;5058821;28;20032;-68
2022/10/20 00:46:27;;;;;;;25.17;11.63;;;;;;;9.33;93.73;101603.25;5060574;28;20083;-69
2022/10/20 00:49:00;;;;;;;24.02;11.60;;;;;;;9.32;93.79;101598.88;5060074;28;20454;-68
2022/10/20 00:51:28;;;;;;;25.67;12.30;;;;;;;9.32;93.83;101595.38;5058397;28;20043;-68
2022/10/20 00:54:01;;;;;;;24.50;11.63;;;;;;;9.33;94.75;101594.56;5077502;28;20017;-68
2022/10/20 00:56:26;;;;;;;24.48;12.02;;;;;;;9.32;94.45;101583.25;5078898;28;20032;-69
2022/10/20 00:58:52;;;;;;;24.13;11.77;;;;;;;9.31;95.09;101589.31;5060407;28;20105;-68
2022/10/20 01:01:18;;;;;;;24.60;12.25;;;;;;;9.32;94.58;101587.59;5060203;28;20047;-68
2022/10/20 01:03:46;;;;;;;21.67;11.90;;;;;;;9.31;94.39;101589.31;5058566;28;20423;-68
2022/10/20 01:06:15;;;;;;;24.43;12.30;;;;;;;9.31;94.14;101593.59;5060561;28;20027;-77
2022/10/20 01:08:40;;;;;;;24.48;11.68;;;;;;;9.30;93.51;101591.81;5058295;28;20023;-77
2022/10/20 01:11:11;;;;;;;24.52;12.45;;;;;;;9.29;93.52;101585.75;5060020;28;20032;-76
2022/10/20 01:13:49;;;;;;;21.85;11.35;;;;;;;9.28;93.48;101565.75;5061996;28;20039;-77
2022/10/20 01:16:28;;;;;;;22.63;12.23;;;;;;;9.26;93.55;101562.22;5061402;28;21241;-76
2022/10/20 01:19:31;;;;;;;22.43;11.90;;;;;;;9.28;93.73;101554.47;5059941;28;20071;-77
2022/10/20 01:22:21;;;;;;;22.63;12.07;;;;;;;9.25;94.05;101541.34;5060871;28;20067;-77
2022/10/20 01:25:01;;;;;;;23.42;11.52;;;;;;;9.20;94.86;101536.84;5059211;28;20021;-77
2022/10/20 01:27:33;;;;;;;25.67;12.75;;;;;;;9.21;95.41;101537.72;5060598;28;20088;-76
2022/10/20 01:30:06;;;;;;;28.73;12.98;;;;;;;9.18;95.54;101533.31;5062277;28;20123;-77
2022/10/20 01:32:48;;;;;;;27.00;11.82;;;;;;;9.19;95.38;101527.25;5061017;28;20020;-77
2022/10/20 01:35:38;;;;;;;40.53;13.60;;;;;;;9.18;95.72;101522.91;5068191;28;20024;-76
2022/10/20 01:38:35;;;;;;;24.13;12.25;;;;;;;9.18;95.65;101520.31;5069041;28;20154;-77
2022/10/20 01:41:27;;;;;;;28.10;12.50;;;;;;;9.20;95.54;101521.25;5068858;28;20060;-77
2022/10/20 01:43:53;;;;;;;26.13;12.82;;;;;;;9.20;95.39;101520.38;5061723;28;20036;-77
2022/10/20 01:46:23;;;;;;;27.92;13.27;;;;;;;9.20;95.52;101512.56;5061945;28;20029;-77
2022/10/20 01:48:49;;;;;;;26.85;13.32;;;;;;;9.19;96.10;101513.38;5058961;28;20032;-77
2022/10/20 01:51:14;;;;;;;28.80;13.63;;;;;;;9.16;96.01;101514.16;5061917;28;20020;-77
2022/10/20 01:53:39;;;;;;;27.85;14.13;;;;;;;9.16;95.86;101534.94;5059887;28;20027;-77
2022/10/20 01:56:06;;;;;;;24.48;12.32;;;;;;;9.16;95.82;101532.34;5058243;28;20064;-77
2022/10/20 01:58:46;;;;;;;25.40;13.05;;;;;;;9.15;95.50;101525.41;5059829;28;20693;-77
2022/10/20 02:01:17;;;;;;;27.25;13.35;;;;;;;9.14;94.41;101520.09;5062235;28;20070;-77
2022/10/20 02:03:53;;;;;;;31.98;14.63;;;;;;;9.12;94.70;101516.56;5057585;28;20556;-77
2022/10/20 02:06:37;;;;;;;26.50;13.15;;;;;;;9.12;94.01;101522.66;5071136;28;20420;-69
2022/10/20 02:09:06;;;;;;;25.13;12.85;;;;;;;9.10;93.99;101516.50;5061423;28;21535;-69
2022/10/20 02:11:47;;;;;;;24.77;13.13;;;;;;;9.10;93.86;101511.31;5058708;28;20111;-69
2022/10/20 02:14:16;;;;;;;28.55;12.63;;;;;;;9.07;93.94;101511.19;5059291;28;20066;-68
2022/10/20 02:16:51;;;;;;;27.30;12.55;;;;;;;9.07;94.02;101502.47;5059895;28;20023;-68
2022/10/20 02:19:21;;;;;;;27.08;12.75;;;;;;;9.04;93.89;101498.94;5058282;28;20032;-68
2022/10/20 02:21:48;;;;;;;24.15;12.20;;;;;;;9.04;93.89;101498.06;5060965;28;20033;-68
2022/10/20 02:24:15;;;;;;;27.92;13.27;;;;;;;9.00;93.95;101484.06;5060163;28;20035;-68
2022/10/20 02:26:41;;;;;;;28.25;13.13;;;;;;;9.01;94.17;101483.22;5057744;28;20023;-69
2022/10/20 02:29:17;;;;;;;29.95;13.95;;;;;;;9.02;94.74;101479.81;5058712;28;20055;-69
2022/10/20 02:31:43;;;;;;;29.15;14.68;;;;;;;9.03;94.77;101475.50;5057459;28;20025;-68
2022/10/20 02:34:10;;;;;;;28.83;13.48;;;;;;;9.02;94.74;101471.13;5059821;28;20028;-69
2022/10/20 02:36:39;;;;;;;27.35;13.77;;;;;;;9.03;94.93;101454.69;5059110;28;20135;-77
2022/10/20 02:39:05;;;;;;;29.73;13.77;;;;;;;9.02;95.55;101452.91;5071658;28;20043;-77
2022/10/20 02:41:30;;;;;;;29.35;14.95;;;;;;;8.99;95.62;101447.59;5055501;28;20024;-76
2022/10/20 02:43:56;;;;;;;28.00;14.30;;;;;;;8.97;95.62;101438.88;5057910;28;20032;-77
2022/10/20 02:46:21;;;;;;;28.30;13.90;;;;;;;8.96;95.11;101432.75;5057615;28;20033;-77
2022/10/20 02:48:47;;;;;;;29.65;13.85;;;;;;;8.94;95.47;101430.97;5060394;28;20028;-77
2022/10/20 02:51:12;;;;;;;30.75;14.77;;;;;;;8.92;95.72;101430.91;5057754;28;20467;-77
2022/10/20 02:53:38;;;;;;;31.13;14.30;;;;;;;8.91;96.08;101417.81;5058082;28;20023;-77
2022/10/20 02:56:03;;;;;;;27.95;14.02;;;;;;;8.92;97.03;101419.59;5066980;28;20116;-77
2022/10/20 02:58:28;;;;;;;33.30;14.45;;;;;;;8.91;96.69;101407.41;5068299;28;20029;-77
2022/10/20 03:00:54;;;;;;;30.23;13.98;;;;;;;8.88;97.01;101409.09;5067373;28;20519;-77
2022/10/20 03:03:19;;;;;;;35.97;15.43;;;;;;;8.87;97.28;101398.63;5068974;28;20067;-77
2022/10/20 03:05:46;;;;;;;30.77;15.20;;;;;;;8.86;97.22;101389.06;5064772;28;20408;-76
2022/10/20 03:08:12;;;;;;;29.08;14.45;;;;;;;8.87;97.43;101389.09;5068971;28;20024;-77
2022/10/20 03:10:38;;;;;;;35.20;15.55;;;;;;;8.87;97.73;101388.22;5067963;28;20039;-77
2022/10/20 03:13:06;;;;;;;30.77;14.75;;;;;;;8.86;97.64;101384.75;5069741;28;20024;-77
2022/10/20 03:15:32;;;;;;;34.25;15.38;;;;;;;8.87;97.68;101390.84;5066897;28;20032;-77
2022/10/20 03:17:57;;;;;;;32.35;14.90;;;;;;;8.90;97.53;101384.88;5068586;28;20025;-77
2022/10/20 03:20:22;;;;;;;33.00;15.60;;;;;;;8.87;97.85;101378.72;5066096;28;20549;-77
2022/10/20 03:22:48;;;;;;;35.80;16.02;;;;;;;8.85;97.82;101367.38;5068842;28;20294;-77
2022/10/20 03:25:13;;;;;;;36.00;15.90;;;;;;;8.85;97.66;101364.78;5066341;28;20021;-76
2022/10/20 03:27:38;;;;;;;33.15;15.77;;;;;;;8.86;98.09;101374.38;5061637;28;20450;-77
2022/10/20 03:30:04;;;;;;;33.28;15.75;;;;;;;8.86;97.98;101366.56;5063948;28;20482;-77
2022/10/20 03:32:29;;;;;;;38.10;16.25;;;;;;;8.90;98.22;101361.50;5068544;28;20041;-77
2022/10/20 03:34:55;;;;;;;35.25;15.73;;;;;;;8.91;98.62;101352.84;5066747;28;20025;-77
2022/10/20 03:37:20;;;;;;;32.08;15.75;;;;;;;8.91;98.46;101360.63;5066515;28;20036;-77
2022/10/20 03:39:45;;;;;;;35.47;16.67;;;;;;;8.92;98.29;101359.81;5067647;28;20044;-77
2022/10/20 03:42:11;;;;;;;37.47;17.15;;;;;;;8.95;98.71;101357.34;5069138;28;20487;-77
2022/10/20 03:44:37;;;;;;;34.15;16.00;;;;;;;8.97;98.28;101356.56;5065651;28;20056;-77
2022/10/20 03:47:02;;;;;;;38.05;16.42;;;;;;;8.97;97.96;101358.31;5061362;28;20397;-76
2022/10/20 03:49:27;;;;;;;38.47;17.00;;;;;;;8.99;97.95;101352.34;5065554;28;20111;-76
2022/10/20 03:51:53;;;;;;;36.03;16.92;;;;;;;9.01;97.97;101345.47;5068071;28;20055;-77
2022/10/20 03:54:18;;;;;;;35.95;17.40;;;;;;;9.03;97.63;101342.94;5066618;28;20412;-77
2022/10/20 03:56:43;;;;;;;37.17;17.33;;;;;;;9.03;97.87;101330.81;5067449;28;20054;-77
2022/10/20 03:59:10;;;;;;;37.17;17.48;;;;;;;9.03;97.96;101325.59;5067400;28;20418;-77
2022/10/20 04:01:36;;;;;;;37.63;17.58;;;;;;;9.04;98.17;101326.50;5063288;28;20036;-77
2022/10/20 04:04:01;;;;;;;38.65;17.08;;;;;;;9.06;98.19;101324.84;5067072;28;20036;-76
2022/10/20 04:06:27;;;;;;;39.92;17.60;;;;;;;9.07;98.15;101334.41;5065036;28;20043;-77
2022/10/20 04:08:52;;;;;;;39.83;17.38;;;;;;;9.07;98.20;101329.22;5065343;28;20034;-77
2022/10/20 04:11:17;;;;;;;37.30;17.20;;;;;;;9.08;98.02;101327.50;5067356;28;20029;-77
2022/10/20 04:13:42;;;;;;;38.42;17.75;;;;;;;9.10;97.81;101324.13;5065215;28;20021;-77
2022/10/20 04:16:08;;;;;;;40.63;16.67;;;;;;;9.11;97.87;101319.81;5070577;28;20326;-77
2022/10/20 04:18:33;;;;;;;40.45;18.20;;;;;;;9.11;97.83;101320.72;5066437;28;20028;-76
2022/10/20 04:20:59;;;;;;;39.00;17.58;;;;;;;9.14;98.02;101313.03;5057230;28;20032;-77
2022/10/20 04:23:24;;;;;;;40.33;17.15;;;;;;;9.14;97.71;101305.22;5057019;28;20020;-77
2022/10/20 04:25:49;;;;;;;39.10;18.15;;;;;;;9.15;97.78;101301.81;5060368;28;20483;-77
2022/10/20 04:28:18;;;;;;;36.88;17.20;;;;;;;9.16;97.74;101298.34;5061541;28;20075;-77
2022/10/20 04:30:44;;;;;;;40.97;18.35;;;;;;;9.16;98.21;101292.28;5061241;28;20024;-77
2022/10/20 04:33:09;;;;;;;38.28;17.92;;;;;;;9.20;98.60;101297.63;5059868;28;20038;-76
2022/10/20 04:35:35;;;;;;;43.33;18.13;;;;;;;9.21;98.56;101289.03;5060792;28;20056;-77
2022/10/20 04:38:00;;;;;;;41.42;17.45;;;;;;;9.23;98.58;101281.28;5061913;28;20774;-77
2022/10/20 04:40:25;;;;;;;44.88;18.95;;;;;;;9.26;98.47;101278.78;5060962;28;20032;-76
2022/10/20 04:42:51;;;;;;;38.80;17.42;;;;;;;9.30;99.04;101282.38;5059868;28;20414;-76
2022/10/20 04:45:16;;;;;;;44.38;19.75;;;;;;;9.33;99.84;101275.56;5069175;28;20082;-77
2022/10/20 04:47:41;;;;;;;40.63;17.33;;;;;;;9.38;99.70;101275.72;5072661;28;20024;-77
2022/10/20 04:50:07;;;;;;;42.83;18.35;;;;;;;9.41;100.00;101283.63;5071652;28;20118;-76
2022/10/20 04:52:32;;;;;;;43.90;19.42;;;;;;;9.46;100.00;101270.78;5072206;28;20083;-77
2022/10/20 04:54:58;;;;;;;42.50;17.65;;;;;;;9.49;100.00;101250.09;5061246;28;20051;-77
2022/10/20 04:57:23;;;;;;;39.75;18.02;;;;;;;9.52;100.00;101252.81;5061905;28;20082;-76
2022/10/20 04:59:48;;;;;;;44.13;18.98;;;;;;;9.55;100.00;101256.38;5072205;28;20432;-77
2022/10/20 05:02:14;;;;;;;46.35;18.98;;;;;;;9.58;100.00;101246.09;5067976;28;20035;-77
2022/10/20 05:04:39;;;;;;;44.80;18.25;;;;;;;9.61;100.00;101237.50;5061486;28;20029;-76
2022/10/20 05:07:05;;;;;;;48.80;20.27;;;;;;;9.65;100.00;101247.19;5072209;28;20462;-77
2022/10/20 05:09:31;;;;;;;43.88;18.73;;;;;;;9.68;100.00;101243.81;5065412;28;20035;-77
2022/10/20 05:11:57;;;;;;;49.42;20.05;;;;;;;9.73;100.00;101252.63;5060534;28;20020;-77
2022/10/20 05:14:22;;;;;;;46.60;20.15;;;;;;;9.74;100.00;101259.63;5067835;28;20024;-77
2022/10/20 05:16:48;;;;;;;48.83;19.60;;;;;;;9.77;100.00;101270.13;5060633;28;20253;-76
2022/10/20 05:19:13;;;;;;;48.10;19.60;;;;;;;9.79;100.00;101255.47;5059621;28;20078;-77
2022/10/20 05:21:38;;;;;;;51.08;20.67;;;;;;;9.80;100.00;101243.34;5060161;28;20040;-77
2022/10/20 05:24:04;;;;;;;51.40;20.33;;;;;;;9.81;100.00;101224.28;5059737;28;20047;-77
2022/10/20 05:26:33;;;;;;;49.08;20.42;;;;;;;9.79;100.00;101211.22;5075236;28;20025;-77
2022/10/20 05:29:00;;;;;;;44.28;19.20;;;;;;;9.79;100.00;101232.03;5063365;28;20056;-77
2022/10/20 05:31:26;;;;;;;47.33;19.33;;;;;;;9.80;100.00;101245.94;5060246;28;20396;-77
2022/10/20 05:33:53;;;;;;;42.97;19.48;;;;;;;9.81;100.00;101247.72;5060345;28;20028;-77
2022/10/20 05:36:22;;;;;;;48.55;19.52;;;;;;;9.78;100.00;101238.06;5062281;28;20028;-69
2022/10/20 05:38:50;;;;;;;48.00;19.73;;;;;;;9.77;100.00;101249.31;5071523;28;20043;-69
2022/10/20 05:41:19;;;;;;;51.30;20.98;;;;;;;9.78;100.00;101243.28;5087225;28;20561;-68
2022/10/20 05:43:51;;;;;;;47.40;19.85;;;;;;;9.78;100.00;101232.00;5070117;28;20438;-68
2022/10/20 05:46:18;;;;;;;49.88;20.20;;;;;;;9.76;100.00;101216.31;5071522;28;20058;-68
2022/10/20 05:48:43;;;;;;;47.30;19.75;;;;;;;9.78;100.00;101216.38;5071449;28;20016;-68
2022/10/20 05:51:16;;;;;;;49.85;20.48;;;;;;;9.79;100.00;101219.03;5071395;28;20039;-69
2022/10/20 05:53:42;;;;;;;46.63;18.88;;;;;;;9.80;100.00;101227.72;5070229;28;20032;-69
2022/10/20 05:56:09;;;;;;;46.95;20.02;;;;;;;9.79;99.72;101237.25;5067665;28;20036;-68
2022/10/20 05:58:35;;;;;;;46.60;20.13;;;;;;;9.79;100.00;101236.34;5060726;28;20048;-69
2022/10/20 06:01:23;;;;;;;46.63;20.35;;;;;;;9.78;99.79;101238.06;5061805;28;20020;-69
2022/10/20 06:03:59;;;;;;;51.53;18.65;;;;;;;9.78;99.80;101238.06;5055771;28;20085;-68
2022/10/20 06:06:27;;;;;;;48.22;19.13;;;;;;;9.77;99.69;101241.50;5060184;28;20031;-69
2022/10/20 06:08:53;;;;;;;43.80;19.85;;;;;;;9.76;99.70;101237.13;5058001;28;20032;-69
2022/10/20 06:11:19;;;;;;;48.20;19.73;;;;;;;9.74;99.63;101237.06;5058526;28;20020;-68
2022/10/20 06:13:45;;;;;;;47.72;18.27;;;;;;;9.75;99.65;101235.38;5063589;28;20327;-68
2022/10/20 06:16:17;;;;;;;49.05;20.75;;;;;;;9.73;99.13;101224.91;5070821;28;20028;-68
2022/10/20 06:18:42;;;;;;;53.33;21.35;;;;;;;9.74;100.00;101223.19;5059864;28;20523;-68
2022/10/20 06:21:15;;;;;;;48.10;20.77;;;;;;;9.74;99.61;101233.59;5067687;28;20032;-69
2022/10/20 06:23:40;;;;;;;58.28;21.27;;;;;;;9.75;99.26;101232.78;5064536;28;20107;-69
2022/10/20 06:26:11;;;;;;;49.53;20.52;;;;;;;9.75;99.69;101240.59;5061229;28;20111;-68
2022/10/20 06:28:38;;;;;;;48.90;19.67;;;;;;;9.75;99.53;101246.66;5074638;28;20056;-68
2022/10/20 06:31:13;;;;;;;51.60;21.55;;;;;;;9.78;100.00;101252.81;5062530;28;20086;-68
2022/10/20 06:33:39;;;;;;;48.08;19.45;;;;;;;9.79;100.00;101236.34;5064665;28;20048;-69
2022/10/20 06:36:08;;;;;;;50.53;20.58;;;;;;;9.79;100.00;101231.13;5058149;28;20048;-74
2022/10/20 06:38:33;;;;;;;46.95;21.10;;;;;;;9.80;100.00;101239.00;5064354;28;20087;-68
2022/10/20 06:41:11;;;;;;;51.58;20.70;;;;;;;9.82;100.00;101226.94;5067249;28;20553;-68
2022/10/20 06:43:36;;;;;;;52.60;20.63;;;;;;;9.81;100.00;101227.75;5056629;28;20094;-68
2022/10/20 06:46:04;;;;;;;52.25;20.77;;;;;;;9.83;100.00;101226.09;5063775;28;20029;-68
2022/10/20 06:48:30;;;;;;;51.75;20.35;;;;;;;9.85;100.00;101226.16;5068542;28;20028;-68
2022/10/20 06:51:00;;;;;;;54.13;21.52;;;;;;;9.86;100.00;101228.81;5068199;28;20081;-68
2022/10/20 06:53:27;;;;;;;57.92;20.92;;;;;;;9.87;100.00;101222.75;5069623;28;20487;-68
2022/10/20 06:56:06;;;;;;;54.15;23.10;;;;;;;9.91;100.00;101223.75;5068740;28;20034;-69
2022/10/20 06:58:33;;;;;;;54.30;21.85;;;;;;;9.95;100.00;101214.31;5062445;28;20052;-69
2022/10/20 07:01:15;;;;;;;52.47;21.95;;;;;;;9.96;100.00;101209.16;5079697;28;20040;-69
2022/10/20 07:03:42;;;;;;;52.70;20.65;;;;;;;10.00;100.00;101210.16;5068113;28;20029;-69
2022/10/20 07:06:09;;;;;;;49.15;20.70;;;;;;;10.03;100.00;101202.44;5063873;28;20031;-77
2022/10/20 07:08:35;;;;;;;61.03;22.55;;;;;;;10.05;100.00;101193.84;5065993;28;20021;-77
2022/10/20 07:11:03;;;;;;;51.83;21.48;;;;;;;10.07;100.00;101193.88;5060112;28;20033;-77
2022/10/20 07:13:30;;;;;;;58.65;22.80;;;;;;;10.10;100.00;101196.56;5061102;28;20416;-77
2022/10/20 07:15:57;;;;;;;58.65;23.80;;;;;;;10.16;100.00;101211.50;5067563;28;20043;-77
2022/10/20 07:18:23;;;;;;;54.08;21.73;;;;;;;10.17;100.00;101211.56;5052946;28;20037;-77
2022/10/20 07:20:48;;;;;;;53.40;21.80;;;;;;;10.21;100.00;101210.81;5067227;28;20483;-77
2022/10/20 07:23:14;;;;;;;57.63;22.67;;;;;;;10.26;100.00;101210.97;5068584;28;20111;-77
2022/10/20 07:25:39;;;;;;;59.75;23.02;;;;;;;10.28;100.00;101217.09;5061391;28;20510;-77
2022/10/20 07:28:05;;;;;;;68.82;24.02;;;;;;;10.32;100.00;101218.94;5056707;28;20459;-77
2022/10/20 07:30:30;;;;;;;58.00;22.42;;;;;;;10.36;100.00;101217.38;5065334;28;20028;-77
2022/10/20 07:32:55;;;;;;;53.63;22.83;;;;;;;10.40;100.00;101209.69;5065954;28;20024;-80
2022/10/20 07:35:21;;;;;;;63.35;23.35;;;;;;;10.45;100.00;101215.03;5063856;28;20039;-79
2022/10/20 07:37:46;;;;;;;58.78;23.77;;;;;;;10.48;100.00;101216.84;5067898;28;20021;-77
2022/10/20 07:40:11;;;;;;;51.65;21.70;;;;;;;10.52;100.00;101216.97;5063864;28;20108;-77
2022/10/20 07:42:37;;;;;;;56.17;23.02;;;;;;;10.57;100.00;101214.50;5061327;28;20503;-79
2022/10/20 07:45:03;;;;;;;52.58;21.75;;;;;;;10.61;100.00;101216.38;5064528;28;20721;-79
2022/10/20 07:47:28;;;;;;;55.20;21.95;;;;;;;10.66;100.00;101219.09;5066625;28;20052;-79
2022/10/20 07:49:53;;;;;;;61.72;22.85;;;;;;;10.70;100.00;101215.75;5066865;28;20075;-78
2022/10/20 07:52:19;;;;;;;51.83;21.70;;;;;;;10.74;100.00;101212.41;5066617;28;20020;-78
2022/10/20 07:54:44;;;;;;;54.40;21.98;;;;;;;10.78;100.00;101215.13;5076558;28;20016;-78
2022/10/20 07:57:09;;;;;;;49.17;21.08;;;;;;;10.83;100.00;101217.00;5066083;28;20067;-77
2022/10/20 07:59:34;;;;;;;54.92;21.70;;;;;;;10.88;100.00;101221.50;5063888;28;20031;-78
2022/10/20 08:02:00;;;;;;;55.50;22.52;;;;;;;10.92;100.00;101231.19;5070979;28;20259;-79
2022/10/20 08:04:26;;;;;;;59.63;23.17;;;;;;;10.95;100.00;101223.44;5064341;28;20126;-77
2022/10/20 08:06:51;;;;;;;57.08;21.98;;;;;;;11.00;100.00;101214.88;5066764;28;20644;-69
2022/10/20 08:09:16;;;;;;;56.13;22.77;;;;;;;11.04;100.00;101203.69;5060853;28;20494;-68
2022/10/20 08:11:41;;;;;;;56.58;21.52;;;;;;;11.07;100.00;101201.16;5063659;28;20101;-68
2022/10/20 08:14:07;;;;;;;52.75;22.70;;;;;;;11.12;100.00;101209.97;5060549;28;20029;-68
2022/10/20 08:16:33;;;;;;;56.35;22.17;;;;;;;11.14;100.00;101211.78;5062138;28;20722;-68
2022/10/20 08:18:59;;;;;;;55.95;22.08;;;;;;;11.21;100.00;101214.56;5075115;28;20455;-69
2022/10/20 08:21:24;;;;;;;55.92;23.08;;;;;;;11.26;100.00;101212.97;5071128;28;20055;-68
2022/10/20 08:23:50;;;;;;;57.10;22.77;;;;;;;11.30;100.00;101205.25;5062426;28;20024;-68
2022/10/20 08:26:18;;;;;;;60.67;22.98;;;;;;;11.35;100.00;101201.88;5062655;28;20407;-68
2022/10/20 08:28:44;;;;;;;54.13;22.13;;;;;;;11.38;99.81;101208.06;5067175;28;20061;-69
2022/10/20 08:31:09;;;;;;;65.20;22.77;;;;;;;11.42;99.56;101196.84;5078378;28;20028;-69
2022/10/20 08:33:34;;;;;;;56.85;22.60;;;;;;;11.48;99.88;101203.97;5062941;28;20033;-69
2022/10/20 08:36:05;;;;;;;54.72;21.65;;;;;;;11.51;99.87;101201.44;5063297;28;20402;-69
2022/10/20 08:38:30;;;;;;;53.72;22.58;;;;;;;11.54;99.46;101201.50;5059768;28;20115;-77
2022/10/20 08:40:58;;;;;;;57.83;23.80;;;;;;;11.59;98.88;101209.47;5061401;28;20151;-77
2022/10/20 08:43:24;;;;;;;59.20;23.63;;;;;;;11.63;99.06;101208.72;5060517;28;20028;-78
2022/10/20 08:45:49;;;;;;;58.67;22.75;;;;;;;11.66;99.25;101204.44;5079787;28;20078;-79
2022/10/20 08:48:21;;;;;;;58.20;23.63;;;;;;;11.72;99.56;101195.88;5071840;28;20028;-76
2022/10/20 08:50:49;;;;;;;54.80;23.75;;;;;;;11.79;99.81;101192.56;5085478;28;20024;-77
2022/10/20 08:53:17;;;;;;;61.33;24.35;;;;;;;11.86;99.21;101198.84;5068736;28;20032;-76
2022/10/20 08:55:44;;;;;;;60.10;23.50;;;;;;;11.92;98.90;101196.38;5071804;28;20032;-77
2022/10/20 08:58:17;;;;;;;59.03;23.13;;;;;;;11.99;99.04;101185.25;5070822;28;20094;-77
2022/10/20 09:00:43;;;;;;;57.38;22.77;;;;;;;12.08;99.15;101178.44;5071249;28;20028;-77
2022/10/20 09:03:23;;;;;;;57.05;23.52;;;;;;;12.16;98.92;101163.84;5071991;28;20024;-77
2022/10/20 09:05:55;;;;;;;59.17;24.42;;;;;;;12.25;98.48;101168.38;5072305;28;20017;-76
2022/10/20 09:08:24;;;;;;;62.60;24.48;;;;;;;12.28;97.75;101169.34;5069776;28;20036;-76
2022/10/20 09:10:52;;;;;;;57.00;23.92;;;;;;;12.34;97.38;101173.84;5069027;28;20032;-76
2022/10/20 09:13:30;;;;;;;65.38;24.58;;;;;;;12.39;96.95;101171.31;5087220;28;20028;-76
2022/10/20 09:16:02;;;;;;;59.55;24.23;;;;;;;12.42;96.67;101161.78;5071742;28;20124;-76
2022/10/20 09:18:28;;;;;;;60.72;25.17;;;;;;;12.47;96.72;101169.72;5070271;28;20109;-75
2022/10/20 09:20:58;;;;;;;55.42;23.80;;;;;;;12.50;97.47;101181.13;5068760;28;20483;-74
2022/10/20 09:23:36;;;;;;;59.15;24.33;;;;;;;12.54;96.83;101174.22;5066885;28;20036;-74
2022/10/20 09:26:02;;;;;;;55.95;24.13;;;;;;;12.57;96.07;101176.03;5063296;28;20060;-74
2022/10/20 09:28:28;;;;;;;56.45;24.20;;;;;;;12.59;96.17;101170.00;5070550;28;20056;-74
2022/10/20 09:30:55;;;;;;;55.72;24.08;;;;;;;12.61;97.05;101168.28;5070034;28;20031;-74
2022/10/20 09:33:32;;;;;;;57.22;24.63;;;;;;;12.63;96.08;101166.59;5069284;28;20099;-74
2022/10/20 09:36:04;;;;;;;57.83;23.90;;;;;;;12.67;96.13;101170.13;5086550;28;20016;-74
2022/10/20 09:38:33;;;;;;;55.15;22.85;;;;;;;12.67;96.29;101168.41;5068881;28;20027;-69
2022/10/20 09:41:18;;;;;;;59.90;23.60;;;;;;;12.70;96.60;101183.25;5067258;28;20071;-70
2022/10/20 09:43:54;;;;;;;56.47;23.48;;;;;;;12.73;96.54;101175.50;5068641;28;20025;-69
2022/10/20 09:46:22;;;;;;;53.08;22.48;;;;;;;12.75;95.74;101172.94;5069323;28;20495;-69
2022/10/20 09:48:49;;;;;;;54.90;23.17;;;;;;;12.76;95.39;101179.91;5065477;28;20024;-69
2022/10/20 09:51:19;;;;;;;53.38;22.85;;;;;;;12.77;95.34;101181.66;5067631;28;20016;-70
2022/10/20 09:53:52;;;;;;;52.47;22.88;;;;;;;12.78;95.71;101176.47;5067488;28;20107;-69
2022/10/20 09:56:40;;;;;;;52.70;22.02;;;;;;;12.80;95.63;101161.72;5069729;28;20030;-69
2022/10/20 09:59:17;;;;;;;54.90;22.00;;;;;;;12.82;95.56;101156.50;5063461;28;20028;-69
2022/10/20 10:01:58;;;;;;;50.65;22.55;;;;;;;12.84;95.68;101157.41;5070095;28;20431;-69
2022/10/20 10:04:29;;;;;;;55.95;21.50;;;;;;;12.85;96.29;101164.41;5059843;28;20396;-69
2022/10/20 10:06:55;;;;;;;55.75;21.38;;;;;;;12.86;96.64;101160.91;5059055;28;20024;-69
2022/10/20 10:09:30;;;;;;;56.03;22.58;;;;;;;12.88;96.39;101161.84;5067118;28;20021;-69
2022/10/20 10:12:11;;;;;;;57.42;22.15;;;;;;;12.91;97.04;101159.28;5065426;28;20048;-69
2022/10/20 10:14:47;;;;;;;58.90;22.80;;;;;;;12.91;97.06;101161.91;5062031;28;20550;-69
2022/10/20 10:17:28;;;;;;;55.92;22.70;;;;;;;12.93;97.53;101164.53;5068072;28;20055;-70
2022/10/20 10:19:54;;;;;;;53.78;23.05;;;;;;;12.93;98.19;101162.78;5077069;28;20671;-70
2022/10/20 10:22:19;;;;;;;60.53;24.50;;;;;;;12.95;98.38;101157.63;5065460;28;20032;-70
2022/10/20 10:24:46;;;;;;;58.28;22.45;;;;;;;12.96;98.95;101160.25;5065885;28;20375;-70
2022/10/20 10:27:22;;;;;;;62.55;23.58;;;;;;;12.97;99.83;101141.09;5067316;28;20028;-70
2022/10/20 10:29:47;;;;;;;67.07;24.20;;;;;;;12.98;99.86;101145.47;5069451;28;20044;-70
2022/10/20 10:32:15;;;;;;;54.63;24.10;;;;;;;12.98;99.88;101142.84;5066681;28;20020;-70
2022/10/20 10:35:00;;;;;;;56.08;24.48;;;;;;;13.00;100.00;101140.25;5083392;28;20442;-70
2022/10/20 10:37:27;;;;;;;56.20;23.73;;;;;;;12.99;100.00;101136.78;5084536;28;20739;-71
2022/10/20 10:39:52;;;;;;;59.05;25.00;;;;;;;13.00;100.00;101124.56;5067659;28;20066;-71
2022/10/20 10:42:48;;;;;;;65.60;25.05;;;;;;;12.99;100.00;101123.69;5069064;28;20105;-71
2022/10/20 10:45:18;;;;;;;58.95;26.30;;;;;;;12.98;100.00;101121.06;5064851;28;20031;-71
2022/10/20 10:47:53;;;;;;;70.35;26.13;;;;;;;12.98;100.00;101142.84;5067296;28;20078;-71
2022/10/20 10:50:24;;;;;;;61.85;25.08;;;;;;;12.98;100.00;101134.13;5063787;28;20082;-71
2022/10/20 10:53:14;;;;;;;63.97;25.30;;;;;;;12.96;100.00;101135.81;5064606;28;20495;-71
2022/10/20 10:55:54;;;;;;;68.35;25.23;;;;;;;12.97;100.00;101140.22;5066806;28;20024;-70
2022/10/20 10:58:44;;;;;;;71.03;25.48;;;;;;;12.97;100.00;101130.63;5082829;28;20443;-70
2022/10/20 11:01:45;;;;;;;67.78;25.42;;;;;;;12.95;100.00;101142.81;5067433;28;20029;-70
2022/10/20 11:04:27;;;;;;;66.70;26.10;;;;;;;12.95;100.00;101129.72;5048951;28;20044;-71
2022/10/20 11:07:30;;;;;;;58.17;24.08;;;;;;;12.94;100.00;101116.63;5066209;28;20032;-73
2022/10/20 11:10:07;;;;;;;62.40;24.65;;;;;;;12.94;100.00;101107.03;5067141;28;20020;-73
2022/10/20 11:13:12;;;;;;;70.45;27.15;;;;;;;12.96;100.00;101101.81;5067518;28;20029;-72
2022/10/20 11:15:55;;;;;;;65.13;25.98;;;;;;;12.96;100.00;101105.34;5068698;28;20032;-73
2022/10/20 11:18:35;;;;;;;68.75;26.30;;;;;;;12.97;100.00;101096.63;5068338;28;20017;-73
2022/10/20 11:21:36;;;;;;;65.53;26.42;;;;;;;12.99;100.00;101097.53;5065951;28;20514;-72
2022/10/20 11:24:12;;;;;;;77.75;27.90;;;;;;;12.99;100.00;101102.78;5032018;28;20037;-73